Sahiwal, Pakistan
Current Conditions -  °F | °C
As of 4:55 PM on Wednesday 22 Oct 2014 (Local Time) from OPLA Reporting Station
Clear Clear  
Wind Chill: 88°   Ceiling: Unl
Heat Index: 88°   Visibility: 4mi
Dew Point: 55°   Wind: 5mph
Humidity: 33%   Direction: 340°NNW
Pressure: 29.97"   Gusts: NA
Location:  30.67°N, 73.11°E
Report Text: OPLA 221155Z 34004KT 6000 NSC 31/13 Q1015 NOSIG
Loading
Personal Weather Stations






























Interactive Weather Map
Tropical Storm Tracking
New forecast layout! Learn more

10-Day Weather Forecast

Advertisements
Track Severe Weather on mobile